sensor_id;sensor_type;location;lat;lon;timestamp;temperature;humidity
5027;DHT22;2532;52.480;13.354;2023-06-10T04:01:17;17.20;98.00
5027;DHT22;2532;52.480;13.354;2023-06-10T04:03:46;17.20;98.10
5027;DHT22;2532;52.480;13.354;2023-06-10T04:06:14;17.10;98.10
5027;DHT22;2532;52.480;13.354;2023-06-10T04:08:41;17.10;98.20
5027;DHT22;2532;52.480;13.354;2023-06-10T04:11:09;17.10;98.20
5027;DHT22;2532;52.480;13.354;2023-06-10T04:13:36;17.10;98.20
5027;DHT22;2532;52.480;13.354;2023-06-10T04:16:03;17.20;98.20
5027;DHT22;2532;52.480;13.354;2023-06-10T04:18:32;17.20;98.10
5027;DHT22;2532;52.480;13.354;2023-06-10T04:20:59;17.20;98.10
5027;DHT22;2532;52.480;13.354;2023-06-10T04:23:26;17.30;98.10
5027;DHT22;2532;52.480;13.354;2023-06-10T04:25:53;17.30;98.10
5027;DHT22;2532;52.480;13.354;2023-06-10T04:28:19;17.30;98.10
5027;DHT22;2532;52.480;13.354;2023-06-10T04:30:46;17.40;98.00
5027;DHT22;2532;52.480;13.354;2023-06-10T04:33:16;17.40;97.90
5027;DHT22;2532;52.480;13.354;2023-06-10T04:35:44;17.50;97.90
5027;DHT22;2532;52.480;13.354;2023-06-10T04:38:13;17.50;97.80
5027;DHT22;2532;52.480;13.354;2023-06-10T04:40:39;17.60;97.80
5027;DHT22;2532;52.480;13.354;2023-06-10T04:43:06;17.60;97.70
5027;DHT22;2532;52.480;13.354;2023-06-10T04:45:33;17.60;97.60
5027;DHT22;2532;52.480;13.354;2023-06-10T04:48:00;17.70;97.60
5027;DHT22;2532;52.480;13.354;2023-06-10T04:50:27;17.70;97.50
5027;DHT22;2532;52.480;13.354;2023-06-10T04:52:56;17.80;97.50
5027;DHT22;2532;52.480;13.354;2023-06-10T04:55:23;17.80;97.40
5027;DHT22;2532;52.480;13.354;2023-06-10T04:57:50;17.80;97.40
5027;DHT22;2532;52.480;13.354;2023-06-10T05:00:18;17.80;97.40
5027;DHT22;2532;52.480;13.354;2023-06-10T05:02:45;17.80;97.40
5027;DHT22;2532;52.480;13.354;2023-06-10T05:05:15;17.80;97.30
5027;DHT22;2532;52.480;13.354;2023-06-10T05:07:42;17.80;97.40
5027;DHT22;2532;52.480;13.354;2023-06-10T05:10:10;17.80;97.40
5027;DHT22;2532;52.480;13.354;2023-06-10T05:12:38;17.80;97.40
5027;DHT22;2532;52.480;13.354;2023-06-10T05:15:06;17.90;97.40
5027;DHT22;2532;52.480;13.354;2023-06-10T05:17:33;17.90;97.30
5027;DHT22;2532;52.480;13.354;2023-06-10T05:20:00;17.90;97.50
5027;DHT22;2532;52.480;13.354;2023-06-10T05:22:29;17.90;97.20
5027;DHT22;2532;52.480;13.354;2023-06-10T05:24:56;17.90;97.20
5027;DHT22;2532;52.480;13.354;2023-06-10T05:27:24;18.00;97.20
5027;DHT22;2532;52.480;13.354;2023-06-10T05:29:51;18.00;97.10
5027;DHT22;2532;52.480;13.354;2023-06-10T05:32:18;18.00;97.10
5027;DHT22;2532;52.480;13.354;2023-06-10T05:34:45;18.00;97.10
5027;DHT22;2532;52.480;13.354;2023-06-10T05:37:12;18.10;97.10
5027;DHT22;2532;52.480;13.354;2023-06-10T05:39:40;18.10;97.10
5027;DHT22;2532;52.480;13.354;2023-06-10T05:42:07;18.20;97.20
5027;DHT22;2532;52.480;13.354;2023-06-10T05:44:35;18.20;97.40
5027;DHT22;2532;52.480;13.354;2023-06-10T05:47:03;18.30;97.40
5027;DHT22;2532;52.480;13.354;2023-06-10T05:49:30;18.40;97.50
5027;DHT22;2532;52.480;13.354;2023-06-10T05:51:57;18.50;97.30
5027;DHT22;2532;52.480;13.354;2023-06-10T05:54:25;18.60;97.00
5027;DHT22;2532;52.480;13.354;2023-06-10T05:56:51;18.70;97.00
5027;DHT22;2532;52.480;13.354;2023-06-10T05:59:18;18.80;96.80
5027;DHT22;2532;52.480;13.354;2023-06-10T06:01:47;18.90;96.60
5027;DHT22;2532;52.480;13.354;2023-06-10T06:04:13;19.10;96.50
5027;DHT22;2532;52.480;13.354;2023-06-10T06:06:40;19.20;96.20
5027;DHT22;2532;52.480;13.354;2023-06-10T06:09:07;19.20;96.00
5027;DHT22;2532;52.480;13.354;2023-06-10T06:11:34;19.30;96.00
5027;DHT22;2532;52.480;13.354;2023-06-10T06:14:01;19.40;95.90
5027;DHT22;2532;52.480;13.354;2023-06-10T06:16:28;19.50;95.70
5027;DHT22;2532;52.480;13.354;2023-06-10T06:18:56;19.60;95.60
5027;DHT22;2532;52.480;13.354;2023-06-10T06:21:24;19.70;95.60
5027;DHT22;2532;52.480;13.354;2023-06-10T06:23:51;19.70;95.40
5027;DHT22;2532;52.480;13.354;2023-06-10T06:26:18;19.80;95.40
5027;DHT22;2532;52.480;13.354;2023-06-10T06:28:44;19.90;95.30
5027;DHT22;2532;52.480;13.354;2023-06-10T06:31:11;20.00;95.20
5027;DHT22;2532;52.480;13.354;2023-06-10T06:33:38;20.10;95.40
5027;DHT22;2532;52.480;13.354;2023-06-10T06:36:07;20.30;94.90
5027;DHT22;2532;52.480;13.354;2023-06-10T06:38:34;20.30;94.80
5027;DHT22;2532;52.480;13.354;2023-06-10T06:41:01;20.40;94.70
5027;DHT22;2532;52.480;13.354;2023-06-10T06:43:29;20.60;94.60
5027;DHT22;2532;52.480;13.354;2023-06-10T06:45:56;20.70;94.50
5027;DHT22;2532;52.480;13.354;2023-06-10T06:48:23;20.70;94.60
5027;DHT22;2532;52.480;13.354;2023-06-10T06:50:50;20.90;94.20
5027;DHT22;2532;52.480;13.354;2023-06-10T06:53:18;20.90;94.10
5027;DHT22;2532;52.480;13.354;2023-06-10T06:55:45;21.00;93.90
5027;DHT22;2532;52.480;13.354;2023-06-10T06:58:12;21.10;93.80
5027;DHT22;2532;52.480;13.354;2023-06-10T07:00:39;21.10;93.70
5027;DHT22;2532;52.480;13.354;2023-06-10T07:03:06;21.10;93.70
5027;DHT22;2532;52.480;13.354;2023-06-10T07:05:33;21.20;93.60
5027;DHT22;2532;52.480;13.354;2023-06-10T07:08:00;21.30;93.60
5027;DHT22;2532;52.480;13.354;2023-06-10T07:10:29;21.40;93.50
5027;DHT22;2532;52.480;13.354;2023-06-10T07:12:56;21.50;93.30
5027;DHT22;2532;52.480;13.354;2023-06-10T07:15:23;21.60;93.00
5027;DHT22;2532;52.480;13.354;2023-06-10T07:17:50;21.60;92.90
5027;DHT22;2532;52.480;13.354;2023-06-10T07:20:17;21.70;92.90
5027;DHT22;2532;52.480;13.354;2023-06-10T07:22:44;21.80;92.70
5027;DHT22;2532;52.480;13.354;2023-06-10T07:25:11;21.90;92.80
5027;DHT22;2532;52.480;13.354;2023-06-10T07:27:42;22.00;92.60
5027;DHT22;2532;52.480;13.354;2023-06-10T07:30:10;22.20;92.60
5027;DHT22;2532;52.480;13.354;2023-06-10T07:32:37;22.30;92.00
5027;DHT22;2532;52.480;13.354;2023-06-10T07:35:08;22.40;92.00
5027;DHT22;2532;52.480;13.354;2023-06-10T07:37:35;22.50;91.80
5027;DHT22;2532;52.480;13.354;2023-06-10T07:40:05;22.70;91.60
5027;DHT22;2532;52.480;13.354;2023-06-10T07:42:34;22.80;91.50
5027;DHT22;2532;52.480;13.354;2023-06-10T07:45:03;22.90;91.30
5027;DHT22;2532;52.480;13.354;2023-06-10T07:47:32;22.90;91.10
5027;DHT22;2532;52.480;13.354;2023-06-10T07:49:59;22.90;91.00
5027;DHT22;2532;52.480;13.354;2023-06-10T07:52:27;22.90;91.00
5027;DHT22;2532;52.480;13.354;2023-06-10T07:54:54;22.90;90.90
5027;DHT22;2532;52.480;13.354;2023-06-10T07:57:21;23.00;90.90
5027;DHT22;2532;52.480;13.354;2023-06-10T07:59:48;23.10;90.90
5027;DHT22;2532;52.480;13.354;2023-06-10T08:02:17;23.10;90.80
5027;DHT22;2532;52.480;13.354;2023-06-10T08:04:44;23.10;90.70
5027;DHT22;2532;52.480;13.354;2023-06-10T08:07:11;23.10;91.00
5027;DHT22;2532;52.480;13.354;2023-06-10T08:09:39;23.10;90.70
5027;DHT22;2532;52.480;13.354;2023-06-10T08:12:07;23.10;90.70
5027;DHT22;2532;52.480;13.354;2023-06-10T08:14:34;23.10;90.70
5027;DHT22;2532;52.480;13.354;2023-06-10T08:17:03;23.20;90.60
5027;DHT22;2532;52.480;13.354;2023-06-10T08:19:33;23.20;90.50
5027;DHT22;2532;52.480;13.354;2023-06-10T08:22:00;23.20;90.50
5027;DHT22;2532;52.480;13.354;2023-06-10T08:24:28;23.30;90.50
5027;DHT22;2532;52.480;13.354;2023-06-10T08:26:55;23.30;90.50
5027;DHT22;2532;52.480;13.354;2023-06-10T08:29:23;23.30;90.40
5027;DHT22;2532;52.480;13.354;2023-06-10T08:31:50;23.30;90.50
5027;DHT22;2532;52.480;13.354;2023-06-10T08:34:18;23.40;90.60
5027;DHT22;2532;52.480;13.354;2023-06-10T08:36:46;23.40;90.50
5027;DHT22;2532;52.480;13.354;2023-06-10T08:39:17;23.60;90.30
5027;DHT22;2532;52.480;13.354;2023-06-10T08:41:49;23.60;90.30
5027;DHT22;2532;52.480;13.354;2023-06-10T08:44:27;23.80;90.40
5027;DHT22;2532;52.480;13.354;2023-06-10T08:46:55;23.90;90.20
5027;DHT22;2532;52.480;13.354;2023-06-10T08:49:23;24.00;89.80
5027;DHT22;2532;52.480;13.354;2023-06-10T08:51:59;24.20;89.10
5027;DHT22;2532;52.480;13.354;2023-06-10T08:54:30;24.30;88.60
5027;DHT22;2532;52.480;13.354;2023-06-10T08:56:59;24.50;88.60
5027;DHT22;2532;52.480;13.354;2023-06-10T08:59:29;24.50;87.90
5027;DHT22;2532;52.480;13.354;2023-06-10T09:01:56;24.70;87.40
5027;DHT22;2532;52.480;13.354;2023-06-10T09:04:24;24.80;87.40
5027;DHT22;2532;52.480;13.354;2023-06-10T09:06:52;24.90;86.90
5027;DHT22;2532;52.480;13.354;2023-06-10T09:09:23;24.90;86.60
5027;DHT22;2532;52.480;13.354;2023-06-10T09:11:50;24.90;86.00
5027;DHT22;2532;52.480;13.354;2023-06-10T09:14:17;25.00;85.80
5027;DHT22;2532;52.480;13.354;2023-06-10T09:16:44;25.20;85.50
5027;DHT22;2532;52.480;13.354;2023-06-10T09:19:15;25.20;85.20
5027;DHT22;2532;52.480;13.354;2023-06-10T09:21:43;25.40;85.10
5027;DHT22;2532;52.480;13.354;2023-06-10T09:24:10;25.50;84.50
5027;DHT22;2532;52.480;13.354;2023-06-10T09:26:38;25.60;84.10
5027;DHT22;2532;52.480;13.354;2023-06-10T09:29:06;25.70;83.20
5027;DHT22;2532;52.480;13.354;2023-06-10T09:31:35;25.80;83.40
5027;DHT22;2532;52.480;13.354;2023-06-10T09:34:07;25.80;82.80
5027;DHT22;2532;52.480;13.354;2023-06-10T09:36:38;25.80;82.80
5027;DHT22;2532;52.480;13.354;2023-06-10T09:39:12;25.80;82.50
5027;DHT22;2532;52.480;13.354;2023-06-10T09:41:42;25.90;82.80
5027;DHT22;2532;52.480;13.354;2023-06-10T09:44:12;25.90;82.80
5027;DHT22;2532;52.480;13.354;2023-06-10T09:46:45;25.90;82.60
5027;DHT22;2532;52.480;13.354;2023-06-10T09:49:12;25.90;82.50
5027;DHT22;2532;52.480;13.354;2023-06-10T09:51:49;25.90;83.20
5027;DHT22;2532;52.480;13.354;2023-06-10T09:54:16;25.70;82.30
5027;DHT22;2532;52.480;13.354;2023-06-10T09:56:47;25.60;82.70
5027;DHT22;2532;52.480;13.354;2023-06-10T09:59:14;25.50;83.00
5027;DHT22;2532;52.480;13.354;2023-06-10T10:01:41;25.40;82.60
5027;DHT22;2532;52.480;13.354;2023-06-10T10:04:08;25.20;82.70
5027;DHT22;2532;52.480;13.354;2023-06-10T10:06:36;25.10;82.80
5027;DHT22;2532;52.480;13.354;2023-06-10T10:09:04;25.00;82.70
5027;DHT22;2532;52.480;13.354;2023-06-10T10:11:32;24.90;82.70
5027;DHT22;2532;52.480;13.354;2023-06-10T10:14:04;24.80;82.70
5027;DHT22;2532;52.480;13.354;2023-06-10T10:16:36;24.70;82.50
5027;DHT22;2532;52.480;13.354;2023-06-10T10:19:11;24.70;82.50
5027;DHT22;2532;52.480;13.354;2023-06-10T10:21:43;24.60;82.30
5027;DHT22;2532;52.480;13.354;2023-06-10T10:24:17;24.60;82.00
5027;DHT22;2532;52.480;13.354;2023-06-10T10:26:46;24.60;81.90
5027;DHT22;2532;52.480;13.354;2023-06-10T10:29:22;24.60;81.60
5027;DHT22;2532;52.480;13.354;2023-06-10T10:31:51;24.60;81.20
5027;DHT22;2532;52.480;13.354;2023-06-10T10:34:23;24.60;81.20
5027;DHT22;2532;52.480;13.354;2023-06-10T10:36:51;24.70;81.40
5027;DHT22;2532;52.480;13.354;2023-06-10T10:39:19;24.70;80.60
5027;DHT22;2532;52.480;13.354;2023-06-10T10:41:47;24.80;79.80
5027;DHT22;2532;52.480;13.354;2023-06-10T10:44:16;24.80;78.40
5027;DHT22;2532;52.480;13.354;2023-06-10T10:46:46;24.80;77.00
5027;DHT22;2532;52.480;13.354;2023-06-10T10:49:15;24.90;76.10
5027;DHT22;2532;52.480;13.354;2023-06-10T10:51:57;24.80;74.20
5027;DHT22;2532;52.480;13.354;2023-06-10T10:54:29;25.00;72.80
5027;DHT22;2532;52.480;13.354;2023-06-10T10:57:16;25.10;72.60
5027;DHT22;2532;52.480;13.354;2023-06-10T10:59:46;25.10;71.80
5027;DHT22;2532;52.480;13.354;2023-06-10T11:02:18;25.30;71.50
5027;DHT22;2532;52.480;13.354;2023-06-10T11:04:46;25.30;70.40
5027;DHT22;2532;52.480;13.354;2023-06-10T11:07:14;25.40;69.60
5027;DHT22;2532;52.480;13.354;2023-06-10T11:09:57;25.50;69.40
5027;DHT22;2532;52.480;13.354;2023-06-10T11:12:24;25.70;68.90
5027;DHT22;2532;52.480;13.354;2023-06-10T11:14:55;25.90;68.60
5027;DHT22;2532;52.480;13.354;2023-06-10T11:17:22;26.00;68.10
5027;DHT22;2532;52.480;13.354;2023-06-10T11:19:49;26.20;68.10
5027;DHT22;2532;52.480;13.354;2023-06-10T11:22:17;26.30;66.80
5027;DHT22;2532;52.480;13.354;2023-06-10T11:24:48;26.50;65.90
5027;DHT22;2532;52.480;13.354;2023-06-10T11:27:16;26.60;65.20
5027;DHT22;2532;52.480;13.354;2023-06-10T11:30:18;26.70;64.80
5027;DHT22;2532;52.480;13.354;2023-06-10T11:32:51;26.80;64.00
5027;DHT22;2532;52.480;13.354;2023-06-10T11:35:19;26.90;64.40
5027;DHT22;2532;52.480;13.354;2023-06-10T11:37:47;27.00;64.30
5027;DHT22;2532;52.480;13.354;2023-06-10T11:40:14;27.10;63.90
5027;DHT22;2532;52.480;13.354;2023-06-10T11:42:42;27.30;64.10
5027;DHT22;2532;52.480;13.354;2023-06-10T11:45:15;27.40;63.10
5027;DHT22;2532;52.480;13.354;2023-06-10T11:47:56;27.60;63.20
5027;DHT22;2532;52.480;13.354;2023-06-10T11:50:29;27.80;61.90
5027;DHT22;2532;52.480;13.354;2023-06-10T11:52:56;28.00;61.70
5027;DHT22;2532;52.480;13.354;2023-06-10T11:55:24;28.10;60.30
5027;DHT22;2532;52.480;13.354;2023-06-10T11:57:51;28.20;59.40
5027;DHT22;2532;52.480;13.354;2023-06-10T12:00:24;28.30;58.80
5027;DHT22;2532;52.480;13.354;2023-06-10T12:02:57;28.40;58.80
5027;DHT22;2532;52.480;13.354;2023-06-10T12:05:24;28.50;58.90
5027;DHT22;2532;52.480;13.354;2023-06-10T12:08:09;28.50;58.20
5027;DHT22;2532;52.480;13.354;2023-06-10T12:10:41;28.50;59.40
5027;DHT22;2532;52.480;13.354;2023-06-10T12:13:08;28.50;60.20
5027;DHT22;2532;52.480;13.354;2023-06-10T12:15:37;28.40;60.70
5027;DHT22;2532;52.480;13.354;2023-06-10T12:18:04;28.40;62.60
5027;DHT22;2532;52.480;13.354;2023-06-10T12:20:32;28.30;64.40
5027;DHT22;2532;52.480;13.354;2023-06-10T12:23:00;28.40;65.20
5027;DHT22;2532;52.480;13.354;2023-06-10T12:25:28;28.30;63.00
5027;DHT22;2532;52.480;13.354;2023-06-10T12:27:57;28.30;62.90
5027;DHT22;2532;52.480;13.354;2023-06-10T12:30:25;28.20;63.00
5027;DHT22;2532;52.480;13.354;2023-06-10T12:32:54;28.20;63.00
5027;DHT22;2532;52.480;13.354;2023-06-10T12:35:22;28.20;61.20
5027;DHT22;2532;52.480;13.354;2023-06-10T12:37:58;28.20;60.60
5027;DHT22;2532;52.480;13.354;2023-06-10T12:40:27;28.20;60.20
5027;DHT22;2532;52.480;13.354;2023-06-10T12:42:54;28.20;60.20
5027;DHT22;2532;52.480;13.354;2023-06-10T12:45:31;28.30;60.20
5027;DHT22;2532;52.480;13.354;2023-06-10T12:48:06;28.30;60.80
5027;DHT22;2532;52.480;13.354;2023-06-10T12:50:35;28.40;61.50
5027;DHT22;2532;52.480;13.354;2023-06-10T12:53:03;28.40;62.00
5027;DHT22;2532;52.480;13.354;2023-06-10T12:55:30;28.60;62.10
5027;DHT22;2532;52.480;13.354;2023-06-10T12:57:58;28.70;62.00
5027;DHT22;2532;52.480;13.354;2023-06-10T13:00:25;28.70;61.60
5027;DHT22;2532;52.480;13.354;2023-06-10T13:02:55;28.80;62.10
5027;DHT22;2532;52.480;13.354;2023-06-10T13:05:23;28.80;62.10
5027;DHT22;2532;52.480;13.354;2023-06-10T13:07:50;28.90;62.40
5027;DHT22;2532;52.480;13.354;2023-06-10T13:10:18;28.90;62.60
5027;DHT22;2532;52.480;13.354;2023-06-10T13:12:45;29.00;63.20
5027;DHT22;2532;52.480;13.354;2023-06-10T13:15:12;29.20;63.70
5027;DHT22;2532;52.480;13.354;2023-06-10T13:17:40;29.30;63.90
5027;DHT22;2532;52.480;13.354;2023-06-10T13:20:07;29.40;63.50
5027;DHT22;2532;52.480;13.354;2023-06-10T13:22:36;29.40;64.30
5027;DHT22;2532;52.480;13.354;2023-06-10T13:25:04;29.50;63.20
5027;DHT22;2532;52.480;13.354;2023-06-10T13:27:32;29.50;62.90
5027;DHT22;2532;52.480;13.354;2023-06-10T13:29:59;29.50;63.40
5027;DHT22;2532;52.480;13.354;2023-06-10T13:32:26;29.50;62.20
5027;DHT22;2532;52.480;13.354;2023-06-10T13:34:53;29.50;62.40
5027;DHT22;2532;52.480;13.354;2023-06-10T13:37:20;29.50;61.60
5027;DHT22;2532;52.480;13.354;2023-06-10T13:39:51;29.50;61.60
5027;DHT22;2532;52.480;13.354;2023-06-10T13:42:18;29.50;61.60
5027;DHT22;2532;52.480;13.354;2023-06-10T13:44:46;29.60;61.80
5027;DHT22;2532;52.480;13.354;2023-06-10T13:47:14;29.60;61.60
5027;DHT22;2532;52.480;13.354;2023-06-10T13:49:41;29.60;62.60
5027;DHT22;2532;52.480;13.354;2023-06-10T13:52:08;29.70;63.20
5027;DHT22;2532;52.480;13.354;2023-06-10T13:54:35;29.80;63.10
5027;DHT22;2532;52.480;13.354;2023-06-10T13:57:04;29.90;60.50
5027;DHT22;2532;52.480;13.354;2023-06-10T13:59:31;30.10;59.60
5027;DHT22;2532;52.480;13.354;2023-06-10T14:01:58;30.10;59.20
5027;DHT22;2532;52.480;13.354;2023-06-10T14:04:25;30.20;59.50
5027;DHT22;2532;52.480;13.354;2023-06-10T14:06:52;30.30;59.00
5027;DHT22;2532;52.480;13.354;2023-06-10T14:09:19;30.20;59.90
5027;DHT22;2532;52.480;13.354;2023-06-10T14:11:46;30.20;60.00
5027;DHT22;2532;52.480;13.354;2023-06-10T14:14:15;30.10;59.70
5027;DHT22;2532;52.480;13.354;2023-06-10T14:16:42;29.90;60.10
5027;DHT22;2532;52.480;13.354;2023-06-10T14:19:09;29.80;60.50
5027;DHT22;2532;52.480;13.354;2023-06-10T14:21:36;29.70;61.20
5027;DHT22;2532;52.480;13.354;2023-06-10T14:24:03;29.60;61.70
5027;DHT22;2532;52.480;13.354;2023-06-10T14:26:30;29.70;61.50
5027;DHT22;2532;52.480;13.354;2023-06-10T14:28:58;29.60;60.10
5027;DHT22;2532;52.480;13.354;2023-06-10T14:31:26;29.50;58.80
5027;DHT22;2532;52.480;13.354;2023-06-10T14:33:53;29.50;58.50
5027;DHT22;2532;52.480;13.354;2023-06-10T14:36:20;29.70;57.20
5027;DHT22;2532;52.480;13.354;2023-06-10T14:38:47;29.80;56.40
5027;DHT22;2532;52.480;13.354;2023-06-10T14:41:14;29.90;56.20
5027;DHT22;2532;52.480;13.354;2023-06-10T14:43:41;29.90;56.00
5027;DHT22;2532;52.480;13.354;2023-06-10T14:46:08;29.90;55.60
5027;DHT22;2532;52.480;13.354;2023-06-10T14:48:36;30.00;55.10
5027;DHT22;2532;52.480;13.354;2023-06-10T14:51:03;30.10;54.40
5027;DHT22;2532;52.480;13.354;2023-06-10T14:53:30;30.10;54.00
5027;DHT22;2532;52.480;13.354;2023-06-10T14:55:57;30.20;53.60
5027;DHT22;2532;52.480;13.354;2023-06-10T14:58:24;30.30;53.60
5027;DHT22;2532;52.480;13.354;2023-06-10T15:00:51;30.50;53.10
5027;DHT22;2532;52.480;13.354;2023-06-10T15:03:18;30.60;52.60
5027;DHT22;2532;52.480;13.354;2023-06-10T15:05:46;30.60;52.40
5027;DHT22;2532;52.480;13.354;2023-06-10T15:08:13;30.60;51.90
5027;DHT22;2532;52.480;13.354;2023-06-10T15:10:40;30.50;51.80
5027;DHT22;2532;52.480;13.354;2023-06-10T15:13:08;30.60;51.70
5027;DHT22;2532;52.480;13.354;2023-06-10T15:15:35;30.70;51.30
5027;DHT22;2532;52.480;13.354;2023-06-10T15:18:02;30.70;51.10
5027;DHT22;2532;52.480;13.354;2023-06-10T15:20:29;30.80;51.20
5027;DHT22;2532;52.480;13.354;2023-06-10T15:23:00;30.80;51.10
5027;DHT22;2532;52.480;13.354;2023-06-10T15:25:27;30.90;50.90
5027;DHT22;2532;52.480;13.354;2023-06-10T15:27:54;30.90;50.70
5027;DHT22;2532;52.480;13.354;2023-06-10T15:30:21;31.00;50.90
5027;DHT22;2532;52.480;13.354;2023-06-10T15:32:48;31.00;50.40
5027;DHT22;2532;52.480;13.354;2023-06-10T15:35:15;31.10;50.50
5027;DHT22;2532;52.480;13.354;2023-06-10T15:37:42;31.20;49.70
5027;DHT22;2532;52.480;13.354;2023-06-10T15:40:11;31.20;49.70
5027;DHT22;2532;52.480;13.354;2023-06-10T15:42:38;31.20;49.40
5027;DHT22;2532;52.480;13.354;2023-06-10T15:45:06;31.40;49.50
5027;DHT22;2532;52.480;13.354;2023-06-10T15:47:33;31.50;47.70
5027;DHT22;2532;52.480;13.354;2023-06-10T15:50:00;31.50;47.30
5027;DHT22;2532;52.480;13.354;2023-06-10T15:52:27;31.50;46.70
5027;DHT22;2532;52.480;13.354;2023-06-10T15:54:54;31.70;46.20
5027;DHT22;2532;52.480;13.354;2023-06-10T15:57:25;31.70;45.40
5027;DHT22;2532;52.480;13.354;2023-06-10T15:59:52;31.70;44.90
5027;DHT22;2532;52.480;13.354;2023-06-10T16:02:19;31.70;45.20
5027;DHT22;2532;52.480;13.354;2023-06-10T16:04:53;31.80;44.20
5027;DHT22;2532;52.480;13.354;2023-06-10T16:07:20;31.90;44.50
5027;DHT22;2532;52.480;13.354;2023-06-10T16:09:47;32.00;43.50
5027;DHT22;2532;52.480;13.354;2023-06-10T16:12:14;31.90;43.00
5027;DHT22;2532;52.480;13.354;2023-06-10T16:14:42;31.80;43.60
5027;DHT22;2532;52.480;13.354;2023-06-10T16:17:09;31.80;42.90
5027;DHT22;2532;52.480;13.354;2023-06-10T16:19:36;31.80;42.70
5027;DHT22;2532;52.480;13.354;2023-06-10T16:22:03;31.90;42.30
5027;DHT22;2532;52.480;13.354;2023-06-10T16:24:30;31.90;42.30
5027;DHT22;2532;52.480;13.354;2023-06-10T16:26:58;31.90;42.00
5027;DHT22;2532;52.480;13.354;2023-06-10T16:29:26;32.00;42.00
5027;DHT22;2532;52.480;13.354;2023-06-10T16:31:54;32.00;42.10
5027;DHT22;2532;52.480;13.354;2023-06-10T16:34:21;32.00;44.20
5027;DHT22;2532;52.480;13.354;2023-06-10T16:36:48;31.80;44.70
5027;DHT22;2532;52.480;13.354;2023-06-10T16:39:15;31.50;45.50
5027;DHT22;2532;52.480;13.354;2023-06-10T16:41:42;31.30;45.90
5027;DHT22;2532;52.480;13.354;2023-06-10T16:44:09;31.10;46.40
5027;DHT22;2532;52.480;13.354;2023-06-10T16:46:39;31.00;46.60
5027;DHT22;2532;52.480;13.354;2023-06-10T16:49:09;31.00;46.40
5027;DHT22;2532;52.480;13.354;2023-06-10T16:51:36;31.30;44.60
5027;DHT22;2532;52.480;13.354;2023-06-10T16:54:03;31.60;44.00
5027;DHT22;2532;52.480;13.354;2023-06-10T16:56:30;31.90;40.70
5027;DHT22;2532;52.480;13.354;2023-06-10T16:58:57;32.10;39.90
5027;DHT22;2532;52.480;13.354;2023-06-10T17:01:24;32.30;39.30
5027;DHT22;2532;52.480;13.354;2023-06-10T17:03:51;32.50;38.90
5027;DHT22;2532;52.480;13.354;2023-06-10T17:06:20;32.60;38.70
5027;DHT22;2532;52.480;13.354;2023-06-10T17:08:46;32.80;38.70
5027;DHT22;2532;52.480;13.354;2023-06-10T17:11:14;32.90;38.30
5027;DHT22;2532;52.480;13.354;2023-06-10T17:13:44;33.00;37.80
5027;DHT22;2532;52.480;13.354;2023-06-10T17:16:11;33.10;37.50
5027;DHT22;2532;52.480;13.354;2023-06-10T17:18:41;33.20;37.30
5027;DHT22;2532;52.480;13.354;2023-06-10T17:21:08;33.30;37.20
5027;DHT22;2532;52.480;13.354;2023-06-10T17:23:36;33.50;36.90
5027;DHT22;2532;52.480;13.354;2023-06-10T17:26:03;33.50;36.50
5027;DHT22;2532;52.480;13.354;2023-06-10T17:28:30;33.50;37.10
5027;DHT22;2532;52.480;13.354;2023-06-10T17:30:58;33.50;36.10
5027;DHT22;2532;52.480;13.354;2023-06-10T17:33:26;33.50;36.00
5027;DHT22;2532;52.480;13.354;2023-06-10T17:35:53;33.50;35.90
5027;DHT22;2532;52.480;13.354;2023-06-10T17:38:20;33.40;36.20
5027;DHT22;2532;52.480;13.354;2023-06-10T17:40:49;33.20;36.10
5027;DHT22;2532;52.480;13.354;2023-06-10T17:43:16;33.20;36.10
5027;DHT22;2532;52.480;13.354;2023-06-10T17:45:43;33.10;36.10
5027;DHT22;2532;52.480;13.354;2023-06-10T17:48:10;32.90;36.20
5027;DHT22;2532;52.480;13.354;2023-06-10T17:50:37;32.70;36.90
5027;DHT22;2532;52.480;13.354;2023-06-10T17:53:04;32.70;36.40
5027;DHT22;2532;52.480;13.354;2023-06-10T17:55:31;32.50;36.30
5027;DHT22;2532;52.480;13.354;2023-06-10T17:58:00;32.50;36.30
5027;DHT22;2532;52.480;13.354;2023-06-10T18:00:27;32.40;36.50
5027;DHT22;2532;52.480;13.354;2023-06-10T18:02:54;32.50;36.50
5027;DHT22;2532;52.480;13.354;2023-06-10T18:05:21;32.50;36.40
5027;DHT22;2532;52.480;13.354;2023-06-10T18:07:49;32.50;36.50
5027;DHT22;2532;52.480;13.354;2023-06-10T18:10:17;32.50;36.50
5027;DHT22;2532;52.480;13.354;2023-06-10T18:12:44;32.50;36.90
5027;DHT22;2532;52.480;13.354;2023-06-10T18:15:13;32.40;36.70
5027;DHT22;2532;52.480;13.354;2023-06-10T18:17:40;32.10;36.80
5027;DHT22;2532;52.480;13.354;2023-06-10T18:20:08;31.80;37.20
5027;DHT22;2532;52.480;13.354;2023-06-10T18:22:35;31.50;38.50
5027;DHT22;2532;52.480;13.354;2023-06-10T18:25:02;31.20;38.30
5027;DHT22;2532;52.480;13.354;2023-06-10T18:27:30;30.90;38.40
5027;DHT22;2532;52.480;13.354;2023-06-10T18:29:58;30.70;38.90
5027;DHT22;2532;52.480;13.354;2023-06-10T18:32:27;30.50;39.20
5027;DHT22;2532;52.480;13.354;2023-06-10T18:34:54;30.30;39.50
5027;DHT22;2532;52.480;13.354;2023-06-10T18:37:24;30.10;39.70
5027;DHT22;2532;52.480;13.354;2023-06-10T18:39:51;29.90;39.90
5027;DHT22;2532;52.480;13.354;2023-06-10T18:42:18;29.70;40.30
5027;DHT22;2532;52.480;13.354;2023-06-10T18:44:45;29.60;40.60
5027;DHT22;2532;52.480;13.354;2023-06-10T18:47:12;29.40;41.00
5027;DHT22;2532;52.480;13.354;2023-06-10T18:49:41;29.20;41.80
5027;DHT22;2532;52.480;13.354;2023-06-10T18:52:08;29.10;42.20
5027;DHT22;2532;52.480;13.354;2023-06-10T18:54:35;28.90;43.10
5027;DHT22;2532;52.480;13.354;2023-06-10T18:57:03;28.70;43.60
5027;DHT22;2532;52.480;13.354;2023-06-10T18:59:31;28.60;44.20
5027;DHT22;2532;52.480;13.354;2023-06-10T19:01:58;28.50;44.70
5027;DHT22;2532;52.480;13.354;2023-06-10T19:04:26;28.30;45.00
5027;DHT22;2532;52.480;13.354;2023-06-10T19:06:54;28.20;45.40
5027;DHT22;2532;52.480;13.354;2023-06-10T19:09:21;28.10;45.90
5027;DHT22;2532;52.480;13.354;2023-06-10T19:11:49;28.00;46.10
5027;DHT22;2532;52.480;13.354;2023-06-10T19:14:16;27.90;46.40
5027;DHT22;2532;52.480;13.354;2023-06-10T19:16:43;27.90;46.90
5027;DHT22;2532;52.480;13.354;2023-06-10T19:19:10;27.70;47.60
5027;DHT22;2532;52.480;13.354;2023-06-10T19:21:37;27.60;48.10
5027;DHT22;2532;52.480;13.354;2023-06-10T19:24:06;27.50;49.00
5027;DHT22;2532;52.480;13.354;2023-06-10T19:26:33;27.40;49.60
5027;DHT22;2532;52.480;13.354;2023-06-10T19:29:01;27.30;50.00
5027;DHT22;2532;52.480;13.354;2023-06-10T19:31:28;27.20;50.30
5027;DHT22;2532;52.480;13.354;2023-06-10T19:33:55;27.20;50.70
5027;DHT22;2532;52.480;13.354;2023-06-10T19:36:22;27.10;51.00
5027;DHT22;2532;52.480;13.354;2023-06-10T19:38:50;27.00;51.40
5027;DHT22;2532;52.480;13.354;2023-06-10T19:41:19;26.90;51.80
5027;DHT22;2532;52.480;13.354;2023-06-10T19:43:47;26.90;52.20
5027;DHT22;2532;52.480;13.354;2023-06-10T19:46:15;26.80;52.50
5027;DHT22;2532;52.480;13.354;2023-06-10T19:48:46;26.70;52.70
5027;DHT22;2532;52.480;13.354;2023-06-10T19:51:14;26.70;52.90